Etusivu
METAR-TAF:

METAR-TAF

Lentoasemat :

Şırnak, Turkki

Leveyspiiri: 37-21-50N, Pituuspiiri: 42-03-36E, korkeus merenpinnasta: 621 m

Tämänhetkinen sää

Tämä raportti tehtiin 5 tuntia ja 12 minuuttia sitten, kello 12.50 UTC
Tuuli 10 kn etelästä/lounaasta
Lämpötila 32°C
Kosteus 15%
Ilmanpaine 1011 hPa
Näkyvyys 10 km tai enemmän
ei pilviä alle 1500 m:ssä eikä cumulonimbus-pilviä

METAR: LTCV 291250Z 21010KT CAVOK 32/02 Q1011

Aika: 21:02 (18:02 UTC)

Sääennuste

Tämä raportti tehtiin 4 tuntia ja 22 minuuttia sitten, kello 13.40 UTC
Ennuste voimassa 29. päivästä klo 15 UTC - 29. päivään klo 24 UTC
Tuuli 12 kn lounaasta
Näkyvyys 10 km tai enemmän
ei pilviä alle 1500 m:ssä eikä cumulonimbus-pilviä
Tulossa
29. päivästä klo 16 UTC - 29. päivään klo 19 UTC
Tuuli 9 kn lännestä/luoteesta

TAF: LTCV 291340Z 2915/2924 22012KT CAVOK BECMG 2916/2919 30009KT

Säähavainnot ja -ennusteet yli 4000 lentoasemalta (METAR- ja TAF-raportit).

Käytössä olevat sääasemat on merkitty karttaan keltaisilla ja punaisilla pisteillä.

Aseta hiiri pisteen päälle nähdäksesi sääaseman nimen.

Klikkaa sitten nähdäksesi säähavainnot ja -ennusteet.

Kartan vaihtaminen: klikkaa mustalla rastilla varustettuja vihreitä pisteitä, niin voit zoomata sisään; viivalla varustettua vihreää pistettä, niin voit zoomata ulos tai vihreitä nuolia, niin pääset viereisille kartoille.


METAR-TAF: